This is the latest recevied weather packets stored in our database for station/object GW7204. If no packets are shown the sender has not sent any weather packets the latest 10 day(s).
| Time | Temp. | Humidity | Pressure | Rain* | Wind** | Luminosity | Snow |
|---|---|---|---|---|---|---|---|
| 1777552218 | 7.22° C | 86% | 1013.2 hPa | 0 mm | - | - | - |
| 1777547553 | 6.11° C | 92% | 1012.5 hPa | 0 mm | - | - | - |
| 1777543972 | 6.11° C | 92% | 1011.8 hPa | 0 mm | - | - | - |
| 1777541793 | 6.67° C | 89% | 1011.8 hPa | 0 mm | - | - | - |
| 1777541092 | 6.67° C | 89% | 1011.8 hPa | 0 mm | - | - | - |
| 1777539636 | 6.67° C | 92% | 1011.8 hPa | 0 mm | - | - | - |
| 1777533490 | 8.33° C | 92% | 1011.8 hPa | 0 mm | - | - | - |
| 1777533164 | 8.33° C | 91% | 1012.1 hPa | 0 mm | - | - | - |
| 1777529177 | 7.78° C | 99% | 1012.1 hPa | 0 mm | - | - | - |
| 1777525575 | 8.33° C | 99% | 1012.5 hPa | 0 mm | - | - | - |
| 1777523807 | 8.89° C | 99% | 1012.1 hPa | 0 mm | - | - | - |
| 1777522339 | 8.89° C | 99% | 1012.1 hPa | 0 mm | - | - | - |
| 1777519854 | 10° C | 97% | 1011.8 hPa | 10.41 mm | - | - | - |
| 1777518740 | 11.11° C | 90% | 1012.1 hPa | 10.41 mm | - | - | - |
| 1777518380 | 11.67° C | 90% | 1011.8 hPa | 10.41 mm | - | - | - |
| 1777515868 | 12.78° C | 81% | 1011.5 hPa | 10.41 mm | - | - | - |
| 1777515498 | 12.78° C | 80% | 1011.8 hPa | 10.41 mm | - | - | - |
| 1777515131 | 13.33° C | 79% | 1011.8 hPa | 10.41 mm | - | - | - |
| 1777512972 | 13.33° C | 87% | 1011.1 hPa | 10.41 mm | - | - | - |
| 1777507957 | 15° C | 87% | 1010.4 hPa | 10.41 mm | - | - | - |
| 1777507230 | 15° C | 89% | 1009.8 hPa | 10.41 mm | - | - | - |
| 1777506139 | 15.56° C | 88% | 1009.8 hPa | 10.41 mm | - | - | - |
| 1777500023 | 15.56° C | 87% | 1009.4 hPa | 10.41 mm | - | - | - |
| 1777497889 | 13.89° C | 95% | 1009.1 hPa | 10.41 mm | - | - | - |
| 1777492106 | 15.56° C | 94% | 1007.7 hPa | 10.16 mm | - | - | - |
* Rain since midnight (hover to see other rain measurements)
** Current wind speed in m/s (hover to see current wind gust speed)